EWG192 EDDH-EDDF
Flight info
| Callsign | EWG192 |
|---|---|
| Flight time | 0h 48m |
| Altitude | 30000 |
| Route | AMLUH2C AMLUH M852 DENIX DCT RIMET T157 KOKEB T157 KERAX KERAX5A |
| Aircraft | A320/M-SDE3FGHIRWY/LB1 |
Departure
| Time | 2026-05-07 16:12 |
|---|---|
| Airport | Hamburg Helmut Schmidt Airport (EDDH) |
Arrival
| Time | 2026-05-07 17:00 |
|---|---|
| Airport | Frankfurt Main Airport (EDDF) |
| Time | Latitude | Longitude | Altitude | Speed | Heading |
|---|---|---|---|---|---|
| 2026-05-07 15:43 | 53.63359 | 10.00385 | 47 ft | 0 kts | 87° |
| 2026-05-07 15:45 | 53.62944 | 10.00292 | 46 ft | 0 kts | 122° |
| 2026-05-07 16:02 | 53.62944 | 10.00290 | 46 ft | 2 kts | 122° |
| 2026-05-07 16:03 | 53.62958 | 10.00254 | 45 ft | 4 kts | 126° |
| 2026-05-07 16:03 | 53.62975 | 10.00219 | 43 ft | 4 kts | 136° |
| 2026-05-07 16:03 | 53.62996 | 10.00194 | 46 ft | 4 kts | 174° |
| 2026-05-07 16:03 | 53.63007 | 10.00195 | 41 ft | 0 kts | 212° |
| 2026-05-07 16:06 | 53.62988 | 10.00174 | 43 ft | 9 kts | 212° |
| 2026-05-07 16:06 | 53.62937 | 10.00121 | 46 ft | 8 kts | 212° |
| 2026-05-07 16:06 | 53.62889 | 10.00070 | 45 ft | 8 kts | 212° |
| 2026-05-07 16:07 | 53.62840 | 10.00001 | 45 ft | 10 kts | 216° |
| 2026-05-07 16:07 | 53.62779 | 9.99939 | 43 ft | 10 kts | 208° |
| 2026-05-07 16:07 | 53.62701 | 9.99867 | 44 ft | 16 kts | 209° |
| 2026-05-07 16:07 | 53.62635 | 9.99718 | 43 ft | 17 kts | 260° |
| 2026-05-07 16:08 | 53.62614 | 9.99531 | 44 ft | 15 kts | 258° |
| 2026-05-07 16:08 | 53.62594 | 9.99366 | 45 ft | 13 kts | 259° |
| 2026-05-07 16:08 | 53.62577 | 9.99216 | 42 ft | 13 kts | 259° |
| 2026-05-07 16:08 | 53.62557 | 9.99034 | 45 ft | 16 kts | 259° |
| 2026-05-07 16:09 | 53.62537 | 9.98862 | 46 ft | 15 kts | 259° |
| 2026-05-07 16:09 | 53.62518 | 9.98687 | 46 ft | 14 kts | 263° |
| 2026-05-07 16:09 | 53.62570 | 9.98570 | 46 ft | 12 kts | 330° |
| 2026-05-07 16:09 | 53.62639 | 9.98502 | 46 ft | 11 kts | 324° |
| 2026-05-07 16:10 | 53.62687 | 9.98437 | 46 ft | 7 kts | 320° |
| 2026-05-07 16:10 | 53.62719 | 9.98392 | 47 ft | 5 kts | 320° |
| 2026-05-07 16:10 | 53.62752 | 9.98345 | 48 ft | 5 kts | 320° |
| 2026-05-07 16:10 | 53.62780 | 9.98319 | 48 ft | 5 kts | 354° |
| 2026-05-07 16:11 | 53.62811 | 9.98365 | 48 ft | 7 kts | 49° |
| 2026-05-07 16:11 | 53.62892 | 9.98529 | 47 ft | 51 kts | 50° |
| 2026-05-07 16:11 | 53.63316 | 9.99386 | 52 ft | 133 kts | 50° |
| 2026-05-07 16:11 | 53.63979 | 10.00787 | 479 ft | 160 kts | 52° |
| 2026-05-07 16:12 | 53.64685 | 10.02301 | 1388 ft | 173 kts | 51° |
| 2026-05-07 16:12 | 53.65490 | 10.03970 | 1804 ft | 191 kts | 51° |
| 2026-05-07 16:12 | 53.66372 | 10.05762 | 2385 ft | 203 kts | 51° |
| 2026-05-07 16:12 | 53.67278 | 10.07595 | 3226 ft | 203 kts | 51° |
| 2026-05-07 16:13 | 53.68189 | 10.09434 | 4029 ft | 206 kts | 51° |
| 2026-05-07 16:13 | 53.69117 | 10.11310 | 4773 ft | 210 kts | 51° |
| 2026-05-07 16:13 | 53.70028 | 10.13254 | 5507 ft | 212 kts | 60° |
| 2026-05-07 16:13 | 53.70455 | 10.15627 | 6188 ft | 216 kts | 88° |
| 2026-05-07 16:14 | 53.70150 | 10.18129 | 6867 ft | 224 kts | 114° |
| 2026-05-07 16:14 | 53.69106 | 10.20220 | 7215 ft | 250 kts | 146° |
| 2026-05-07 16:14 | 53.67405 | 10.21300 | 7613 ft | 273 kts | 163° |
| 2026-05-07 16:14 | 53.65534 | 10.22119 | 8320 ft | 281 kts | 164° |
| 2026-05-07 16:15 | 53.63632 | 10.22953 | 9146 ft | 284 kts | 165° |
| 2026-05-07 16:15 | 53.61658 | 10.23341 | 9962 ft | 289 kts | 180° |
| 2026-05-07 16:15 | 53.59607 | 10.23331 | 10495 ft | 304 kts | 180° |
| 2026-05-07 16:15 | 53.57417 | 10.23316 | 10720 ft | 327 kts | 180° |
| 2026-05-07 16:16 | 53.55075 | 10.23296 | 11093 ft | 343 kts | 180° |
| 2026-05-07 16:16 | 53.52675 | 10.23275 | 11776 ft | 347 kts | 180° |
| 2026-05-07 16:16 | 53.50248 | 10.23253 | 12534 ft | 351 kts | 180° |
| 2026-05-07 16:16 | 53.47797 | 10.23235 | 13266 ft | 354 kts | 180° |
| 2026-05-07 16:17 | 53.45330 | 10.23220 | 13980 ft | 357 kts | 180° |
| 2026-05-07 16:17 | 53.42989 | 10.23209 | 14576 ft | 360 kts | 181° |
| 2026-05-07 16:17 | 53.40471 | 10.23196 | 15214 ft | 363 kts | 181° |
| 2026-05-07 16:17 | 53.37937 | 10.23180 | 15844 ft | 366 kts | 181° |
| 2026-05-07 16:18 | 53.35383 | 10.23164 | 16472 ft | 369 kts | 181° |
| 2026-05-07 16:18 | 53.32804 | 10.23150 | 17094 ft | 372 kts | 181° |
| 2026-05-07 16:18 | 53.30207 | 10.23132 | 17707 ft | 375 kts | 181° |
| 2026-05-07 16:18 | 53.27586 | 10.23112 | 18318 ft | 379 kts | 181° |
| 2026-05-07 16:19 | 53.24935 | 10.23092 | 18884 ft | 382 kts | 181° |
| 2026-05-07 16:19 | 53.22265 | 10.23077 | 19430 ft | 385 kts | 181° |
| 2026-05-07 16:19 | 53.19554 | 10.23062 | 19981 ft | 388 kts | 181° |
| 2026-05-07 16:19 | 53.16844 | 10.23044 | 20529 ft | 391 kts | 181° |
| 2026-05-07 16:20 | 53.14112 | 10.23025 | 21071 ft | 394 kts | 181° |
| 2026-05-07 16:20 | 53.11362 | 10.23006 | 21592 ft | 397 kts | 181° |
| 2026-05-07 16:20 | 53.08595 | 10.22989 | 22114 ft | 400 kts | 181° |
| 2026-05-07 16:20 | 53.05801 | 10.22972 | 22605 ft | 403 kts | 181° |
| 2026-05-07 16:21 | 53.02993 | 10.22959 | 23085 ft | 406 kts | 181° |
| 2026-05-07 16:21 | 53.00158 | 10.22945 | 23556 ft | 408 kts | 181° |
| 2026-05-07 16:21 | 52.97311 | 10.22928 | 23952 ft | 411 kts | 181° |
| 2026-05-07 16:21 | 52.94436 | 10.22910 | 24336 ft | 414 kts | 181° |
| 2026-05-07 16:22 | 52.91552 | 10.22892 | 24715 ft | 416 kts | 181° |
| 2026-05-07 16:22 | 52.88649 | 10.22874 | 25088 ft | 418 kts | 181° |
| 2026-05-07 16:22 | 52.85733 | 10.22855 | 25450 ft | 420 kts | 181° |
| 2026-05-07 16:22 | 52.82799 | 10.22835 | 25821 ft | 422 kts | 181° |
| 2026-05-07 16:23 | 52.79855 | 10.22815 | 26178 ft | 424 kts | 181° |
| 2026-05-07 16:23 | 52.76898 | 10.22796 | 26546 ft | 427 kts | 181° |
| 2026-05-07 16:23 | 52.73915 | 10.22783 | 26903 ft | 429 kts | 181° |
| 2026-05-07 16:23 | 52.70926 | 10.22770 | 27238 ft | 431 kts | 181° |
| 2026-05-07 16:24 | 52.67926 | 10.22754 | 27571 ft | 433 kts | 181° |
| 2026-05-07 16:24 | 52.64909 | 10.22736 | 27895 ft | 434 kts | 181° |
| 2026-05-07 16:24 | 52.61877 | 10.22717 | 28207 ft | 436 kts | 181° |
| 2026-05-07 16:24 | 52.58833 | 10.22699 | 28524 ft | 438 kts | 181° |
| 2026-05-07 16:25 | 52.55785 | 10.22680 | 28823 ft | 440 kts | 181° |
| 2026-05-07 16:25 | 52.52718 | 10.22660 | 29114 ft | 441 kts | 181° |
| 2026-05-07 16:25 | 52.49642 | 10.22639 | 29391 ft | 443 kts | 181° |
| 2026-05-07 16:25 | 52.46566 | 10.22623 | 29660 ft | 445 kts | 181° |
| 2026-05-07 16:26 | 52.43453 | 10.22607 | 29953 ft | 446 kts | 181° |
| 2026-05-07 16:26 | 52.40355 | 10.22589 | 30090 ft | 443 kts | 181° |
| 2026-05-07 16:26 | 52.37301 | 10.22570 | 30104 ft | 436 kts | 181° |
| 2026-05-07 16:27 | 52.31226 | 10.22523 | 30104 ft | 432 kts | 181° |
| 2026-05-07 16:27 | 52.25214 | 10.22476 | 30099 ft | 431 kts | 181° |
| 2026-05-07 16:28 | 52.19223 | 10.22435 | 30100 ft | 430 kts | 181° |
| 2026-05-07 16:28 | 52.13234 | 10.22409 | 30093 ft | 430 kts | 181° |
| 2026-05-07 16:29 | 52.07259 | 10.22388 | 30095 ft | 429 kts | 181° |
| 2026-05-07 16:29 | 52.01297 | 10.22356 | 30095 ft | 428 kts | 181° |
| 2026-05-07 16:30 | 51.95333 | 10.22315 | 30097 ft | 427 kts | 182° |
| 2026-05-07 16:30 | 51.89393 | 10.22270 | 30101 ft | 427 kts | 182° |
| 2026-05-07 16:31 | 51.83471 | 10.22238 | 30099 ft | 426 kts | 181° |
| 2026-05-07 16:31 | 51.78815 | 10.22217 | 30098 ft | 425 kts | 182° |
| 2026-05-07 16:32 | 51.72906 | 10.22173 | 30096 ft | 425 kts | 182° |
| 2026-05-07 16:32 | 51.66995 | 10.22132 | 30045 ft | 425 kts | 182° |
| 2026-05-07 16:32 | 51.64036 | 10.22115 | 29464 ft | 425 kts | 182° |
| 2026-05-07 16:33 | 51.61083 | 10.22100 | 28892 ft | 423 kts | 182° |
| 2026-05-07 16:33 | 51.58149 | 10.22088 | 28338 ft | 420 kts | 182° |
| 2026-05-07 16:33 | 51.55243 | 10.22075 | 27790 ft | 417 kts | 182° |
| 2026-05-07 16:33 | 51.52353 | 10.22059 | 27255 ft | 414 kts | 182° |
| 2026-05-07 16:34 | 51.49480 | 10.22042 | 26731 ft | 411 kts | 182° |
| 2026-05-07 16:34 | 51.46640 | 10.22024 | 26211 ft | 408 kts | 182° |
| 2026-05-07 16:34 | 51.43812 | 10.22006 | 25928 ft | 406 kts | 182° |
| 2026-05-07 16:34 | 51.40987 | 10.21988 | 25676 ft | 405 kts | 182° |
| 2026-05-07 16:35 | 51.38171 | 10.21974 | 25423 ft | 403 kts | 182° |
| 2026-05-07 16:35 | 51.35406 | 10.21962 | 25179 ft | 392 kts | 182° |
| 2026-05-07 16:35 | 51.32717 | 10.21730 | 25038 ft | 378 kts | 192° |
| 2026-05-07 16:35 | 51.30253 | 10.20455 | 25070 ft | 374 kts | 206° |
| 2026-05-07 16:36 | 51.27872 | 10.18661 | 25066 ft | 374 kts | 206° |
| 2026-05-07 16:36 | 51.25561 | 10.16900 | 24942 ft | 374 kts | 206° |
| 2026-05-07 16:36 | 51.23224 | 10.15110 | 24704 ft | 372 kts | 206° |
| 2026-05-07 16:36 | 51.20893 | 10.13320 | 24454 ft | 371 kts | 206° |
| 2026-05-07 16:37 | 51.18578 | 10.11541 | 24216 ft | 370 kts | 206° |
| 2026-05-07 16:37 | 51.16264 | 10.09766 | 23981 ft | 369 kts | 206° |
| 2026-05-07 16:37 | 51.13958 | 10.08004 | 23743 ft | 367 kts | 206° |
| 2026-05-07 16:37 | 51.11653 | 10.06250 | 23483 ft | 367 kts | 206° |
| 2026-05-07 16:38 | 51.09414 | 10.04552 | 23210 ft | 366 kts | 206° |
| 2026-05-07 16:38 | 51.07122 | 10.02811 | 22941 ft | 364 kts | 206° |
| 2026-05-07 16:38 | 51.04847 | 10.01085 | 22647 ft | 360 kts | 206° |
| 2026-05-07 16:38 | 51.02601 | 9.99382 | 22225 ft | 355 kts | 206° |
| 2026-05-07 16:39 | 51.00386 | 9.97706 | 21804 ft | 352 kts | 206° |
| 2026-05-07 16:39 | 50.98179 | 9.96040 | 21372 ft | 349 kts | 206° |
| 2026-05-07 16:39 | 50.95996 | 9.94392 | 20942 ft | 346 kts | 206° |
| 2026-05-07 16:39 | 50.93833 | 9.92761 | 20503 ft | 344 kts | 206° |
| 2026-05-07 16:40 | 50.91677 | 9.91135 | 20067 ft | 342 kts | 206° |
| 2026-05-07 16:40 | 50.89534 | 9.89522 | 19637 ft | 340 kts | 206° |
| 2026-05-07 16:40 | 50.87403 | 9.87922 | 19201 ft | 339 kts | 206° |
| 2026-05-07 16:40 | 50.85321 | 9.86362 | 18906 ft | 334 kts | 206° |
| 2026-05-07 16:41 | 50.83217 | 9.84786 | 18768 ft | 323 kts | 206° |
| 2026-05-07 16:41 | 50.81206 | 9.83276 | 18510 ft | 318 kts | 206° |
| 2026-05-07 16:41 | 50.79222 | 9.81788 | 18148 ft | 315 kts | 206° |
| 2026-05-07 16:41 | 50.77243 | 9.80306 | 17743 ft | 313 kts | 206° |
| 2026-05-07 16:42 | 50.75282 | 9.78837 | 17364 ft | 312 kts | 206° |
| 2026-05-07 16:42 | 50.73327 | 9.77373 | 17015 ft | 310 kts | 206° |
| 2026-05-07 16:42 | 50.71380 | 9.75917 | 16652 ft | 309 kts | 206° |
| 2026-05-07 16:42 | 50.69418 | 9.74454 | 16303 ft | 307 kts | 206° |
| 2026-05-07 16:43 | 50.67487 | 9.73019 | 15973 ft | 306 kts | 206° |
| 2026-05-07 16:43 | 50.65572 | 9.71594 | 15635 ft | 304 kts | 206° |
| 2026-05-07 16:43 | 50.63669 | 9.70175 | 15290 ft | 303 kts | 206° |
| 2026-05-07 16:43 | 50.61762 | 9.68755 | 14951 ft | 301 kts | 206° |
| 2026-05-07 16:44 | 50.59875 | 9.67353 | 14621 ft | 300 kts | 206° |
| 2026-05-07 16:44 | 50.57997 | 9.65959 | 14297 ft | 298 kts | 206° |
| 2026-05-07 16:44 | 50.56121 | 9.64572 | 13973 ft | 297 kts | 206° |
| 2026-05-07 16:44 | 50.54255 | 9.63196 | 13622 ft | 295 kts | 206° |
| 2026-05-07 16:45 | 50.52400 | 9.61825 | 13277 ft | 294 kts | 206° |
| 2026-05-07 16:45 | 50.50686 | 9.60542 | 12993 ft | 292 kts | 209° |
| 2026-05-07 16:45 | 50.49041 | 9.58807 | 12650 ft | 289 kts | 222° |
| 2026-05-07 16:45 | 50.47695 | 9.56499 | 12293 ft | 287 kts | 235° |
| 2026-05-07 16:46 | 50.46729 | 9.53777 | 11941 ft | 285 kts | 248° |
| 2026-05-07 16:46 | 50.46125 | 9.50821 | 11584 ft | 284 kts | 253° |
| 2026-05-07 16:46 | 50.45569 | 9.47853 | 11232 ft | 283 kts | 253° |
| 2026-05-07 16:46 | 50.45066 | 9.45204 | 11054 ft | 281 kts | 253° |
| 2026-05-07 16:47 | 50.44527 | 9.42399 | 11056 ft | 282 kts | 250° |
| 2026-05-07 16:47 | 50.43533 | 9.39792 | 11059 ft | 282 kts | 225° |
| 2026-05-07 16:47 | 50.41996 | 9.37901 | 10777 ft | 281 kts | 215° |
| 2026-05-07 16:47 | 50.40373 | 9.36216 | 10415 ft | 280 kts | 214° |
| 2026-05-07 16:48 | 50.38744 | 9.34556 | 10061 ft | 278 kts | 214° |
| 2026-05-07 16:48 | 50.37126 | 9.32894 | 9690 ft | 277 kts | 215° |
| 2026-05-07 16:48 | 50.35556 | 9.31170 | 9314 ft | 275 kts | 217° |
| 2026-05-07 16:48 | 50.34013 | 9.29414 | 8911 ft | 273 kts | 217° |
| 2026-05-07 16:49 | 50.32486 | 9.27657 | 8520 ft | 272 kts | 218° |
| 2026-05-07 16:49 | 50.30952 | 9.25882 | 8129 ft | 270 kts | 218° |
| 2026-05-07 16:49 | 50.29447 | 9.24144 | 7760 ft | 268 kts | 218° |
| 2026-05-07 16:49 | 50.27948 | 9.22429 | 7169 ft | 266 kts | 218° |
| 2026-05-07 16:50 | 50.26455 | 9.20732 | 6900 ft | 266 kts | 218° |
| 2026-05-07 16:50 | 50.24967 | 9.19040 | 6628 ft | 262 kts | 218° |
| 2026-05-07 16:50 | 50.23518 | 9.17399 | 6377 ft | 255 kts | 217° |
| 2026-05-07 16:50 | 50.22103 | 9.15798 | 6178 ft | 244 kts | 218° |
| 2026-05-07 16:51 | 50.20771 | 9.14293 | 5974 ft | 230 kts | 217° |
| 2026-05-07 16:51 | 50.19529 | 9.12835 | 5761 ft | 217 kts | 223° |
| 2026-05-07 16:51 | 50.18529 | 9.11150 | 5552 ft | 207 kts | 234° |
| 2026-05-07 16:51 | 50.17795 | 9.09236 | 5355 ft | 205 kts | 245° |
| 2026-05-07 16:52 | 50.17292 | 9.07165 | 5158 ft | 205 kts | 250° |
| 2026-05-07 16:52 | 50.16843 | 9.05229 | 5059 ft | 204 kts | 249° |
| 2026-05-07 16:52 | 50.16366 | 9.03193 | 5030 ft | 203 kts | 250° |
| 2026-05-07 16:52 | 50.15879 | 9.01121 | 5052 ft | 203 kts | 250° |
| 2026-05-07 16:53 | 50.15399 | 8.99102 | 5052 ft | 191 kts | 249° |
| 2026-05-07 16:53 | 50.14958 | 8.97253 | 5101 ft | 175 kts | 249° |
| 2026-05-07 16:53 | 50.14544 | 8.95497 | 5083 ft | 171 kts | 249° |
| 2026-05-07 16:53 | 50.14133 | 8.93748 | 5083 ft | 171 kts | 249° |
| 2026-05-07 16:54 | 50.13726 | 8.92011 | 5084 ft | 170 kts | 250° |
| 2026-05-07 16:54 | 50.13319 | 8.90280 | 5090 ft | 170 kts | 249° |
| 2026-05-07 16:54 | 50.12911 | 8.88543 | 5118 ft | 171 kts | 250° |
| 2026-05-07 16:54 | 50.12504 | 8.86808 | 5121 ft | 171 kts | 249° |
| 2026-05-07 16:55 | 50.12094 | 8.85066 | 5014 ft | 171 kts | 249° |
| 2026-05-07 16:55 | 50.11686 | 8.83333 | 4825 ft | 170 kts | 249° |
| 2026-05-07 16:55 | 50.11274 | 8.81587 | 4592 ft | 169 kts | 249° |
| 2026-05-07 16:55 | 50.10871 | 8.79878 | 4362 ft | 167 kts | 249° |
| 2026-05-07 16:56 | 50.10471 | 8.78180 | 4134 ft | 167 kts | 249° |
| 2026-05-07 16:56 | 50.10070 | 8.76481 | 3902 ft | 167 kts | 250° |
| 2026-05-07 16:56 | 50.09267 | 8.73085 | 3452 ft | 167 kts | 250° |
| 2026-05-07 16:57 | 50.08866 | 8.71393 | 3220 ft | 167 kts | 251° |
| 2026-05-07 16:57 | 50.08463 | 8.69693 | 2988 ft | 168 kts | 251° |
| 2026-05-07 16:57 | 50.08093 | 8.68118 | 2769 ft | 169 kts | 252° |
| 2026-05-07 16:57 | 50.07684 | 8.66403 | 2528 ft | 169 kts | 252° |
| 2026-05-07 16:58 | 50.07279 | 8.64701 | 2317 ft | 167 kts | 252° |
| 2026-05-07 16:58 | 50.06877 | 8.63006 | 2054 ft | 167 kts | 252° |
| 2026-05-07 16:58 | 50.06481 | 8.61295 | 1837 ft | 170 kts | 254° |
| 2026-05-07 16:58 | 50.06086 | 8.59594 | 1581 ft | 167 kts | 253° |
| 2026-05-07 16:59 | 50.05700 | 8.57980 | 1272 ft | 153 kts | 252° |
| 2026-05-07 16:59 | 50.05358 | 8.56465 | 909 ft | 144 kts | 251° |
| 2026-05-07 16:59 | 50.05002 | 8.55030 | 616 ft | 141 kts | 247° |
| 2026-05-07 16:59 | 50.04650 | 8.53621 | 429 ft | 139 kts | 247° |
| 2026-05-07 17:00 | 50.04309 | 8.52247 | 348 ft | 127 kts | 249° |
| 2026-05-07 17:00 | 50.04094 | 8.51341 | 335 ft | 56 kts | 249° |
| 2026-05-07 17:00 | 50.03915 | 8.50930 | 328 ft | 30 kts | 219° |
| 2026-05-07 17:00 | 50.03820 | 8.50839 | 329 ft | 11 kts | 181° |
| 2026-05-07 17:01 | 50.03783 | 8.50877 | 328 ft | 6 kts | 117° |
| 2026-05-07 17:01 | 50.03791 | 8.50965 | 330 ft | 14 kts | 71° |
| 2026-05-07 17:01 | 50.03819 | 8.51094 | 332 ft | 10 kts | 70° |
| 2026-05-07 17:01 | 50.03854 | 8.51234 | 332 ft | 18 kts | 69° |
| 2026-05-07 17:02 | 50.03908 | 8.51458 | 335 ft | 23 kts | 69° |
| 2026-05-07 17:02 | 50.03964 | 8.51695 | 336 ft | 24 kts | 70° |
| 2026-05-07 17:02 | 50.04022 | 8.51935 | 348 ft | 24 kts | 69° |
| 2026-05-07 17:02 | 50.04083 | 8.52183 | 348 ft | 25 kts | 69° |
| 2026-05-07 17:03 | 50.04124 | 8.52354 | 347 ft | 26 kts | 70° |
| 2026-05-07 17:03 | 50.04187 | 8.52623 | 354 ft | 26 kts | 70° |
| 2026-05-07 17:03 | 50.04250 | 8.52881 | 358 ft | 25 kts | 69° |
| 2026-05-07 17:03 | 50.04306 | 8.53123 | 360 ft | 24 kts | 70° |
| 2026-05-07 17:04 | 50.04365 | 8.53361 | 364 ft | 23 kts | 69° |
| 2026-05-07 17:04 | 50.04404 | 8.53608 | 367 ft | 23 kts | 82° |
| 2026-05-07 17:04 | 50.04418 | 8.53864 | 372 ft | 22 kts | 82° |
| 2026-05-07 17:04 | 50.04435 | 8.54101 | 375 ft | 22 kts | 84° |
| 2026-05-07 17:05 | 50.04451 | 8.54376 | 350 ft | 33 kts | 94° |
| 2026-05-07 17:05 | 50.04383 | 8.54687 | 354 ft | 26 kts | 131° |
| 2026-05-07 17:05 | 50.04239 | 8.54815 | 354 ft | 25 kts | 160° |
| 2026-05-07 17:05 | 50.04079 | 8.54906 | 350 ft | 22 kts | 159° |
| 2026-05-07 17:06 | 50.04024 | 8.55039 | 353 ft | 16 kts | 73° |
| 2026-05-07 17:06 | 50.04069 | 8.55226 | 361 ft | 21 kts | 69° |
| 2026-05-07 17:06 | 50.04121 | 8.55448 | 355 ft | 23 kts | 70° |
| 2026-05-07 17:06 | 50.04180 | 8.55688 | 355 ft | 25 kts | 69° |
| 2026-05-07 17:07 | 50.04244 | 8.55949 | 360 ft | 27 kts | 69° |
| 2026-05-07 17:07 | 50.04306 | 8.56217 | 357 ft | 25 kts | 70° |
| 2026-05-07 17:07 | 50.04364 | 8.56464 | 361 ft | 24 kts | 69° |
| 2026-05-07 17:07 | 50.04424 | 8.56713 | 362 ft | 25 kts | 70° |
| 2026-05-07 17:08 | 50.04487 | 8.56974 | 365 ft | 26 kts | 70° |
| 2026-05-07 17:08 | 50.04547 | 8.57241 | 365 ft | 26 kts | 69° |
| 2026-05-07 17:08 | 50.04612 | 8.57498 | 366 ft | 26 kts | 69° |
| 2026-05-07 17:08 | 50.04668 | 8.57733 | 371 ft | 21 kts | 70° |
| 2026-05-07 17:09 | 50.04722 | 8.57902 | 371 ft | 17 kts | 39° |
| 2026-05-07 17:09 | 50.04827 | 8.57882 | 370 ft | 15 kts | 320° |
| 2026-05-07 17:09 | 50.04875 | 8.57740 | 372 ft | 15 kts | 293° |
| 2026-05-07 17:09 | 50.04919 | 8.57587 | 371 ft | 13 kts | 294° |
| 2026-05-07 17:10 | 50.04949 | 8.57483 | 369 ft | 9 kts | 294° |
| 2026-05-07 17:10 | 50.04978 | 8.57415 | 364 ft | 8 kts | 324° |
| 2026-05-07 17:10 | 50.05005 | 8.57412 | 364 ft | 2 kts | 50° |
| 2026-05-07 17:10 | 50.05005 | 8.57422 | 364 ft | 2 kts | 85° |
| 2026-05-07 17:11 | 50.05006 | 8.57433 | 364 ft | 0 kts | 83° |
| 2026-05-07 17:12 | 50.04996 | 8.57422 | 366 ft | 0 kts | 122° |